sensor_id;sensor_type;location;lat;lon;timestamp;P1;durP1;ratioP1;P2;durP2;ratioP2
40320;SDS011;26027;51.454;6.628;2022-11-15T00:01:51;1.98;;;1.88;;
40320;SDS011;26027;51.454;6.628;2022-11-15T00:04:17;2.10;;;2.00;;
40320;SDS011;26027;51.454;6.628;2022-11-15T00:06:43;2.03;;;1.90;;
40320;SDS011;26027;51.454;6.628;2022-11-15T00:09:09;2.55;;;2.35;;
40320;SDS011;26027;51.454;6.628;2022-11-15T00:11:35;2.17;;;1.98;;
40320;SDS011;26027;51.454;6.628;2022-11-15T00:14:01;2.15;;;2.00;;
40320;SDS011;26027;51.454;6.628;2022-11-15T00:16:27;2.00;;;1.90;;
40320;SDS011;26027;51.454;6.628;2022-11-15T00:18:53;2.15;;;2.05;;
40320;SDS011;26027;51.454;6.628;2022-11-15T00:21:19;1.88;;;1.77;;
40320;SDS011;26027;51.454;6.628;2022-11-15T00:23:45;2.40;;;2.20;;
40320;SDS011;26027;51.454;6.628;2022-11-15T00:26:12;2.13;;;1.95;;
40320;SDS011;26027;51.454;6.628;2022-11-15T00:28:39;2.03;;;1.92;;
40320;SDS011;26027;51.454;6.628;2022-11-15T00:31:06;1.92;;;1.83;;
40320;SDS011;26027;51.454;6.628;2022-11-15T00:33:33;2.00;;;1.90;;
40320;SDS011;26027;51.454;6.628;2022-11-15T00:36:06;1.80;;;1.70;;
40320;SDS011;26027;51.454;6.628;2022-11-15T00:38:34;2.67;;;2.47;;
40320;SDS011;26027;51.454;6.628;2022-11-15T00:41:00;2.08;;;1.95;;
40320;SDS011;26027;51.454;6.628;2022-11-15T00:43:27;2.00;;;1.90;;
40320;SDS011;26027;51.454;6.628;2022-11-15T00:45:53;2.03;;;1.92;;
40320;SDS011;26027;51.454;6.628;2022-11-15T00:48:19;2.10;;;2.00;;
40320;SDS011;26027;51.454;6.628;2022-11-15T00:50:45;2.20;;;2.10;;
40320;SDS011;26027;51.454;6.628;2022-11-15T00:53:11;2.35;;;2.13;;
40320;SDS011;26027;51.454;6.628;2022-11-15T00:55:37;2.20;;;2.10;;
40320;SDS011;26027;51.454;6.628;2022-11-15T00:58:03;2.10;;;1.90;;
40320;SDS011;26027;51.454;6.628;2022-11-15T01:00:29;1.90;;;1.80;;
40320;SDS011;26027;51.454;6.628;2022-11-15T01:02:55;1.83;;;1.73;;
40320;SDS011;26027;51.454;6.628;2022-11-15T01:05:21;2.22;;;2.05;;
40320;SDS011;26027;51.454;6.628;2022-11-15T01:07:51;3.72;;;2.03;;
40320;SDS011;26027;51.454;6.628;2022-11-15T01:10:17;2.00;;;1.90;;
40320;SDS011;26027;51.454;6.628;2022-11-15T01:12:43;2.28;;;2.10;;
40320;SDS011;26027;51.454;6.628;2022-11-15T01:15:09;2.30;;;1.90;;
40320;SDS011;26027;51.454;6.628;2022-11-15T01:17:35;1.90;;;1.80;;
40320;SDS011;26027;51.454;6.628;2022-11-15T01:20:02;1.98;;;1.88;;
40320;SDS011;26027;51.454;6.628;2022-11-15T01:22:28;2.15;;;2.05;;
40320;SDS011;26027;51.454;6.628;2022-11-15T01:24:54;1.90;;;1.80;;
40320;SDS011;26027;51.454;6.628;2022-11-15T01:27:20;1.90;;;1.80;;
40320;SDS011;26027;51.454;6.628;2022-11-15T01:29:46;2.15;;;1.85;;
40320;SDS011;26027;51.454;6.628;2022-11-15T01:32:12;1.80;;;1.70;;
40320;SDS011;26027;51.454;6.628;2022-11-15T01:34:38;2.00;;;1.90;;
40320;SDS011;26027;51.454;6.628;2022-11-15T01:37:04;1.90;;;1.80;;
40320;SDS011;26027;51.454;6.628;2022-11-15T01:39:30;2.00;;;1.90;;
40320;SDS011;26027;51.454;6.628;2022-11-15T01:41:56;1.95;;;1.83;;
40320;SDS011;26027;51.454;6.628;2022-11-15T01:46:55;1.90;;;1.80;;
40320;SDS011;26027;51.454;6.628;2022-11-15T01:49:21;2.47;;;2.28;;
40320;SDS011;26027;51.454;6.628;2022-11-15T01:51:48;2.25;;;1.92;;
40320;SDS011;26027;51.454;6.628;2022-11-15T01:54:15;1.83;;;1.67;;
40320;SDS011;26027;51.454;6.628;2022-11-15T01:56:56;2.03;;;1.92;;
40320;SDS011;26027;51.454;6.628;2022-11-15T01:59:25;2.00;;;1.90;;
40320;SDS011;26027;51.454;6.628;2022-11-15T02:01:51;1.90;;;1.80;;
40320;SDS011;26027;51.454;6.628;2022-11-15T02:04:59;1.90;;;1.80;;
40320;SDS011;26027;51.454;6.628;2022-11-15T02:07:06;2.05;;;1.95;;
40320;SDS011;26027;51.454;6.628;2022-11-15T02:09:35;2.08;;;1.98;;
40320;SDS011;26027;51.454;6.628;2022-11-15T02:12:01;1.80;;;1.70;;
40320;SDS011;26027;51.454;6.628;2022-11-15T02:14:27;2.00;;;1.77;;
40320;SDS011;26027;51.454;6.628;2022-11-15T02:30:02;1.80;;;1.70;;
40320;SDS011;26027;51.454;6.628;2022-11-15T02:35:03;1.90;;;1.80;;
40320;SDS011;26027;51.454;6.628;2022-11-15T02:37:44;1.75;;;1.65;;
40320;SDS011;26027;51.454;6.628;2022-11-15T02:40:16;1.80;;;1.70;;
40320;SDS011;26027;51.454;6.628;2022-11-15T02:42:45;1.92;;;1.83;;
40320;SDS011;26027;51.454;6.628;2022-11-15T02:45:35;1.98;;;1.88;;
40320;SDS011;26027;51.454;6.628;2022-11-15T02:48:02;1.83;;;1.73;;
40320;SDS011;26027;51.454;6.628;2022-11-15T02:50:29;1.92;;;1.83;;
40320;SDS011;26027;51.454;6.628;2022-11-15T02:52:57;1.73;;;1.63;;
40320;SDS011;26027;51.454;6.628;2022-11-15T02:55:31;2.00;;;1.90;;
40320;SDS011;26027;51.454;6.628;2022-11-15T03:00:34;1.52;;;1.52;;
40320;SDS011;26027;51.454;6.628;2022-11-15T03:05:34;1.90;;;1.80;;
40320;SDS011;26027;51.454;6.628;2022-11-15T03:08:04;1.80;;;1.70;;
40320;SDS011;26027;51.454;6.628;2022-11-15T03:10:45;2.00;;;1.90;;
40320;SDS011;26027;51.454;6.628;2022-11-15T03:16:15;2.00;;;1.90;;
40320;SDS011;26027;51.454;6.628;2022-11-15T03:18:46;1.80;;;1.70;;
40320;SDS011;26027;51.454;6.628;2022-11-15T03:21:13;1.80;;;1.70;;
40320;SDS011;26027;51.454;6.628;2022-11-15T03:23:39;1.60;;;1.50;;
40320;SDS011;26027;51.454;6.628;2022-11-15T03:26:07;2.05;;;1.95;;
40320;SDS011;26027;51.454;6.628;2022-11-15T03:28:37;1.77;;;1.67;;
40320;SDS011;26027;51.454;6.628;2022-11-15T03:31:04;1.60;;;1.50;;
40320;SDS011;26027;51.454;6.628;2022-11-15T03:33:51;1.90;;;1.80;;
40320;SDS011;26027;51.454;6.628;2022-11-15T03:36:17;1.70;;;1.60;;
40320;SDS011;26027;51.454;6.628;2022-11-15T03:38:43;1.75;;;1.65;;
40320;SDS011;26027;51.454;6.628;2022-11-15T03:41:14;1.55;;;1.45;;
40320;SDS011;26027;51.454;6.628;2022-11-15T03:43:44;1.65;;;1.55;;
40320;SDS011;26027;51.454;6.628;2022-11-15T03:46:19;1.60;;;1.50;;
40320;SDS011;26027;51.454;6.628;2022-11-15T03:48:49;1.55;;;1.45;;
40320;SDS011;26027;51.454;6.628;2022-11-15T03:51:16;1.70;;;1.60;;
40320;SDS011;26027;51.454;6.628;2022-11-15T03:53:42;1.65;;;1.55;;
40320;SDS011;26027;51.454;6.628;2022-11-15T03:56:08;1.88;;;1.77;;
40320;SDS011;26027;51.454;6.628;2022-11-15T03:58:34;1.60;;;1.50;;
40320;SDS011;26027;51.454;6.628;2022-11-15T04:01:00;1.92;;;1.80;;
40320;SDS011;26027;51.454;6.628;2022-11-15T04:03:26;1.70;;;1.60;;
40320;SDS011;26027;51.454;6.628;2022-11-15T04:05:52;2.00;;;1.90;;
40320;SDS011;26027;51.454;6.628;2022-11-15T04:08:18;1.70;;;1.60;;
40320;SDS011;26027;51.454;6.628;2022-11-15T04:10:44;1.80;;;1.70;;
40320;SDS011;26027;51.454;6.628;2022-11-15T04:13:10;1.63;;;1.52;;
40320;SDS011;26027;51.454;6.628;2022-11-15T04:15:36;1.90;;;1.80;;
40320;SDS011;26027;51.454;6.628;2022-11-15T04:18:02;1.80;;;1.70;;
40320;SDS011;26027;51.454;6.628;2022-11-15T04:20:29;1.90;;;1.80;;
40320;SDS011;26027;51.454;6.628;2022-11-15T04:23:18;2.10;;;1.92;;
40320;SDS011;26027;51.454;6.628;2022-11-15T04:26:04;1.90;;;1.80;;
40320;SDS011;26027;51.454;6.628;2022-11-15T04:28:30;1.80;;;1.70;;
40320;SDS011;26027;51.454;6.628;2022-11-15T04:30:56;1.75;;;1.58;;
40320;SDS011;26027;51.454;6.628;2022-11-15T04:33:23;1.70;;;1.60;;
40320;SDS011;26027;51.454;6.628;2022-11-15T04:35:49;1.58;;;1.48;;
40320;SDS011;26027;51.454;6.628;2022-11-15T04:38:34;1.70;;;1.60;;
40320;SDS011;26027;51.454;6.628;2022-11-15T04:41:00;1.70;;;1.60;;
40320;SDS011;26027;51.454;6.628;2022-11-15T04:43:26;2.00;;;1.90;;
40320;SDS011;26027;51.454;6.628;2022-11-15T04:45:53;1.83;;;1.73;;
40320;SDS011;26027;51.454;6.628;2022-11-15T04:48:19;1.80;;;1.70;;
40320;SDS011;26027;51.454;6.628;2022-11-15T04:50:47;2.00;;;1.90;;
40320;SDS011;26027;51.454;6.628;2022-11-15T04:53:13;1.60;;;1.52;;
40320;SDS011;26027;51.454;6.628;2022-11-15T04:55:38;1.48;;;1.40;;
40320;SDS011;26027;51.454;6.628;2022-11-15T04:58:04;1.88;;;1.77;;
40320;SDS011;26027;51.454;6.628;2022-11-15T05:00:30;1.70;;;1.60;;
40320;SDS011;26027;51.454;6.628;2022-11-15T05:02:56;1.77;;;1.67;;
40320;SDS011;26027;51.454;6.628;2022-11-15T05:05:41;1.70;;;1.60;;
40320;SDS011;26027;51.454;6.628;2022-11-15T05:08:07;1.73;;;1.63;;
40320;SDS011;26027;51.454;6.628;2022-11-15T05:10:33;1.70;;;1.60;;
40320;SDS011;26027;51.454;6.628;2022-11-15T05:12:59;1.50;;;1.42;;
40320;SDS011;26027;51.454;6.628;2022-11-15T05:15:25;1.70;;;1.60;;
40320;SDS011;26027;51.454;6.628;2022-11-15T05:17:56;1.60;;;1.50;;
40320;SDS011;26027;51.454;6.628;2022-11-15T05:20:22;1.70;;;1.60;;
40320;SDS011;26027;51.454;6.628;2022-11-15T05:22:48;1.60;;;1.50;;
40320;SDS011;26027;51.454;6.628;2022-11-15T05:25:14;1.92;;;1.83;;
40320;SDS011;26027;51.454;6.628;2022-11-15T05:27:40;1.70;;;1.60;;
40320;SDS011;26027;51.454;6.628;2022-11-15T05:30:06;1.70;;;1.60;;
40320;SDS011;26027;51.454;6.628;2022-11-15T05:32:32;1.70;;;1.60;;
40320;SDS011;26027;51.454;6.628;2022-11-15T05:34:58;1.70;;;1.60;;
40320;SDS011;26027;51.454;6.628;2022-11-15T05:37:24;1.98;;;1.88;;
40320;SDS011;26027;51.454;6.628;2022-11-15T05:39:50;1.70;;;1.60;;
40320;SDS011;26027;51.454;6.628;2022-11-15T05:42:16;1.83;;;1.73;;
40320;SDS011;26027;51.454;6.628;2022-11-15T05:44:44;1.70;;;1.60;;
40320;SDS011;26027;51.454;6.628;2022-11-15T05:47:13;1.63;;;1.52;;
40320;SDS011;26027;51.454;6.628;2022-11-15T05:49:42;2.03;;;1.90;;
40320;SDS011;26027;51.454;6.628;2022-11-15T05:52:10;1.45;;;1.45;;
40320;SDS011;26027;51.454;6.628;2022-11-15T05:54:37;1.70;;;1.60;;
40320;SDS011;26027;51.454;6.628;2022-11-15T05:57:03;1.40;;;1.40;;
40320;SDS011;26027;51.454;6.628;2022-11-15T05:59:30;1.80;;;1.70;;
40320;SDS011;26027;51.454;6.628;2022-11-15T06:01:56;1.63;;;1.52;;
40320;SDS011;26027;51.454;6.628;2022-11-15T06:04:22;1.63;;;1.52;;
40320;SDS011;26027;51.454;6.628;2022-11-15T06:06:49;1.73;;;1.63;;
40320;SDS011;26027;51.454;6.628;2022-11-15T06:09:14;1.70;;;1.60;;
40320;SDS011;26027;51.454;6.628;2022-11-15T06:11:40;1.40;;;1.40;;
40320;SDS011;26027;51.454;6.628;2022-11-15T06:14:06;1.60;;;1.50;;
40320;SDS011;26027;51.454;6.628;2022-11-15T06:16:33;1.50;;;1.40;;
40320;SDS011;26027;51.454;6.628;2022-11-15T06:18:59;1.60;;;1.50;;
40320;SDS011;26027;51.454;6.628;2022-11-15T06:21:25;1.40;;;1.30;;
40320;SDS011;26027;51.454;6.628;2022-11-15T06:23:52;1.73;;;1.63;;
40320;SDS011;26027;51.454;6.628;2022-11-15T06:26:18;1.63;;;1.52;;
40320;SDS011;26027;51.454;6.628;2022-11-15T06:28:44;1.92;;;1.67;;
40320;SDS011;26027;51.454;6.628;2022-11-15T06:31:11;2.10;;;2.00;;
40320;SDS011;26027;51.454;6.628;2022-11-15T06:33:37;2.17;;;2.08;;
40320;SDS011;26027;51.454;6.628;2022-11-15T06:36:04;1.95;;;1.85;;
40320;SDS011;26027;51.454;6.628;2022-11-15T06:38:30;2.13;;;1.70;;
40320;SDS011;26027;51.454;6.628;2022-11-15T06:41:03;1.95;;;1.85;;
40320;SDS011;26027;51.454;6.628;2022-11-15T06:43:30;4.00;;;2.20;;
40320;SDS011;26027;51.454;6.628;2022-11-15T06:45:57;2.08;;;1.75;;
40320;SDS011;26027;51.454;6.628;2022-11-15T06:48:24;1.95;;;1.85;;
40320;SDS011;26027;51.454;6.628;2022-11-15T06:50:53;2.75;;;1.90;;
40320;SDS011;26027;51.454;6.628;2022-11-15T06:53:20;2.03;;;1.90;;
40320;SDS011;26027;51.454;6.628;2022-11-15T06:55:46;2.55;;;1.80;;
40320;SDS011;26027;51.454;6.628;2022-11-15T06:58:12;2.75;;;1.92;;
40320;SDS011;26027;51.454;6.628;2022-11-15T07:00:38;3.35;;;2.10;;
40320;SDS011;26027;51.454;6.628;2022-11-15T07:03:04;2.55;;;2.33;;
40320;SDS011;26027;51.454;6.628;2022-11-15T07:05:30;2.75;;;2.28;;
40320;SDS011;26027;51.454;6.628;2022-11-15T07:07:56;2.60;;;2.03;;
40320;SDS011;26027;51.454;6.628;2022-11-15T07:10:23;3.15;;;2.28;;
40320;SDS011;26027;51.454;6.628;2022-11-15T07:12:50;5.57;;;1.90;;
40320;SDS011;26027;51.454;6.628;2022-11-15T07:15:17;2.50;;;2.17;;
40320;SDS011;26027;51.454;6.628;2022-11-15T07:17:43;3.10;;;2.45;;
40320;SDS011;26027;51.454;6.628;2022-11-15T07:20:09;4.25;;;2.20;;
40320;SDS011;26027;51.454;6.628;2022-11-15T07:22:36;3.33;;;2.40;;
40320;SDS011;26027;51.454;6.628;2022-11-15T07:25:02;5.38;;;2.17;;
40320;SDS011;26027;51.454;6.628;2022-11-15T07:27:28;4.90;;;2.63;;
40320;SDS011;26027;51.454;6.628;2022-11-15T07:29:54;2.35;;;2.15;;
40320;SDS011;26027;51.454;6.628;2022-11-15T07:32:20;3.15;;;2.33;;
40320;SDS011;26027;51.454;6.628;2022-11-15T07:34:46;4.03;;;2.30;;
40320;SDS011;26027;51.454;6.628;2022-11-15T07:37:12;2.55;;;2.35;;
40320;SDS011;26027;51.454;6.628;2022-11-15T07:39:38;4.07;;;2.53;;
40320;SDS011;26027;51.454;6.628;2022-11-15T07:42:04;4.25;;;2.10;;
40320;SDS011;26027;51.454;6.628;2022-11-15T07:44:49;4.72;;;2.60;;
40320;SDS011;26027;51.454;6.628;2022-11-15T07:47:15;2.83;;;2.33;;
40320;SDS011;26027;51.454;6.628;2022-11-15T07:49:41;3.65;;;2.45;;
40320;SDS011;26027;51.454;6.628;2022-11-15T07:52:07;2.45;;;2.25;;
40320;SDS011;26027;51.454;6.628;2022-11-15T07:54:33;3.55;;;2.28;;
40320;SDS011;26027;51.454;6.628;2022-11-15T07:56:59;4.78;;;2.20;;
40320;SDS011;26027;51.454;6.628;2022-11-15T07:59:25;2.47;;;2.28;;
40320;SDS011;26027;51.454;6.628;2022-11-15T08:01:51;4.50;;;2.50;;
40320;SDS011;26027;51.454;6.628;2022-11-15T08:04:17;3.50;;;2.33;;
40320;SDS011;26027;51.454;6.628;2022-11-15T08:06:43;5.05;;;2.63;;
40320;SDS011;26027;51.454;6.628;2022-11-15T08:09:09;4.20;;;2.80;;
40320;SDS011;26027;51.454;6.628;2022-11-15T08:11:35;3.92;;;2.10;;
40320;SDS011;26027;51.454;6.628;2022-11-15T08:14:01;4.57;;;2.65;;
40320;SDS011;26027;51.454;6.628;2022-11-15T08:16:27;3.75;;;2.50;;
40320;SDS011;26027;51.454;6.628;2022-11-15T08:18:53;6.18;;;2.45;;
40320;SDS011;26027;51.454;6.628;2022-11-15T08:21:19;4.20;;;2.30;;
40320;SDS011;26027;51.454;6.628;2022-11-15T08:23:46;5.10;;;2.30;;
40320;SDS011;26027;51.454;6.628;2022-11-15T08:26:12;6.03;;;2.60;;
40320;SDS011;26027;51.454;6.628;2022-11-15T08:28:38;5.93;;;2.50;;
40320;SDS011;26027;51.454;6.628;2022-11-15T08:31:04;2.28;;;2.08;;
40320;SDS011;26027;51.454;6.628;2022-11-15T08:33:31;4.07;;;2.10;;
40320;SDS011;26027;51.454;6.628;2022-11-15T08:35:58;2.75;;;1.95;;
40320;SDS011;26027;51.454;6.628;2022-11-15T08:38:24;3.30;;;1.60;;
40320;SDS011;26027;51.454;6.628;2022-11-15T08:40:54;3.50;;;2.10;;
40320;SDS011;26027;51.454;6.628;2022-11-15T08:43:25;5.60;;;1.60;;
40320;SDS011;26027;51.454;6.628;2022-11-15T08:45:51;3.40;;;1.80;;
40320;SDS011;26027;51.454;6.628;2022-11-15T08:48:17;3.42;;;1.98;;
40320;SDS011;26027;51.454;6.628;2022-11-15T08:50:43;3.35;;;1.70;;
40320;SDS011;26027;51.454;6.628;2022-11-15T08:53:09;2.28;;;2.00;;
40320;SDS011;26027;51.454;6.628;2022-11-15T08:55:36;3.47;;;1.80;;
40320;SDS011;26027;51.454;6.628;2022-11-15T08:58:03;3.72;;;1.80;;
40320;SDS011;26027;51.454;6.628;2022-11-15T09:00:29;4.60;;;1.80;;
40320;SDS011;26027;51.454;6.628;2022-11-15T09:02:55;2.75;;;1.77;;
40320;SDS011;26027;51.454;6.628;2022-11-15T09:05:21;3.65;;;1.63;;
40320;SDS011;26027;51.454;6.628;2022-11-15T09:07:47;5.13;;;2.13;;
40320;SDS011;26027;51.454;6.628;2022-11-15T09:10:18;2.70;;;1.52;;
40320;SDS011;26027;51.454;6.628;2022-11-15T09:12:44;2.20;;;1.80;;
40320;SDS011;26027;51.454;6.628;2022-11-15T09:15:13;3.78;;;1.80;;
40320;SDS011;26027;51.454;6.628;2022-11-15T09:17:39;2.78;;;1.58;;
40320;SDS011;26027;51.454;6.628;2022-11-15T09:20:05;3.75;;;2.22;;
40320;SDS011;26027;51.454;6.628;2022-11-15T09:22:31;5.03;;;2.08;;
40320;SDS011;26027;51.454;6.628;2022-11-15T09:24:57;5.13;;;2.17;;
40320;SDS011;26027;51.454;6.628;2022-11-15T09:27:27;3.42;;;1.70;;
40320;SDS011;26027;51.454;6.628;2022-11-15T09:29:53;1.58;;;1.40;;
40320;SDS011;26027;51.454;6.628;2022-11-15T09:32:19;4.45;;;1.90;;
40320;SDS011;26027;51.454;6.628;2022-11-15T09:34:45;3.22;;;1.80;;
40320;SDS011;26027;51.454;6.628;2022-11-15T09:37:11;2.33;;;1.70;;
40320;SDS011;26027;51.454;6.628;2022-11-15T09:39:37;3.22;;;1.90;;
40320;SDS011;26027;51.454;6.628;2022-11-15T09:49:43;4.38;;;1.80;;
40320;SDS011;26027;51.454;6.628;2022-11-15T09:52:09;3.08;;;1.70;;
40320;SDS011;26027;51.454;6.628;2022-11-15T09:54:37;3.78;;;1.58;;
40320;SDS011;26027;51.454;6.628;2022-11-15T09:59:37;3.30;;;1.77;;
40320;SDS011;26027;51.454;6.628;2022-11-15T10:02:30;3.15;;;1.88;;
40320;SDS011;26027;51.454;6.628;2022-11-15T10:04:57;3.15;;;1.70;;
40320;SDS011;26027;51.454;6.628;2022-11-15T10:07:30;6.20;;;2.30;;
40320;SDS011;26027;51.454;6.628;2022-11-15T10:10:00;2.65;;;1.70;;
40320;SDS011;26027;51.454;6.628;2022-11-15T10:12:28;5.68;;;1.85;;
40320;SDS011;26027;51.454;6.628;2022-11-15T10:15:05;3.42;;;1.67;;
40320;SDS011;26027;51.454;6.628;2022-11-15T10:20:19;3.45;;;2.00;;
40320;SDS011;26027;51.454;6.628;2022-11-15T10:22:52;3.05;;;1.88;;
40320;SDS011;26027;51.454;6.628;2022-11-15T10:25:26;4.93;;;1.85;;
40320;SDS011;26027;51.454;6.628;2022-11-15T10:28:01;2.65;;;1.35;;
40320;SDS011;26027;51.454;6.628;2022-11-15T10:30:31;5.90;;;2.00;;
40320;SDS011;26027;51.454;6.628;2022-11-15T10:32:57;2.35;;;1.38;;
40320;SDS011;26027;51.454;6.628;2022-11-15T10:35:25;2.28;;;1.83;;
40320;SDS011;26027;51.454;6.628;2022-11-15T10:37:52;4.45;;;1.63;;
40320;SDS011;26027;51.454;6.628;2022-11-15T10:40:22;4.53;;;1.60;;
40320;SDS011;26027;51.454;6.628;2022-11-15T10:42:49;4.10;;;1.48;;
40320;SDS011;26027;51.454;6.628;2022-11-15T10:45:30;6.28;;;1.88;;
40320;SDS011;26027;51.454;6.628;2022-11-15T10:50:37;4.05;;;1.58;;
40320;SDS011;26027;51.454;6.628;2022-11-15T10:53:04;3.05;;;1.65;;
40320;SDS011;26027;51.454;6.628;2022-11-15T10:55:36;6.30;;;1.85;;
40320;SDS011;26027;51.454;6.628;2022-11-15T10:58:09;2.60;;;1.70;;
40320;SDS011;26027;51.454;6.628;2022-11-15T11:00:45;3.60;;;1.70;;
40320;SDS011;26027;51.454;6.628;2022-11-15T11:03:25;3.15;;;1.88;;
40320;SDS011;26027;51.454;6.628;2022-11-15T11:06:03;3.58;;;1.70;;
40320;SDS011;26027;51.454;6.628;2022-11-15T11:08:30;2.80;;;1.50;;
40320;SDS011;26027;51.454;6.628;2022-11-15T11:11:00;3.80;;;1.30;;
40320;SDS011;26027;51.454;6.628;2022-11-15T11:13:28;4.18;;;1.38;;
40320;SDS011;26027;51.454;6.628;2022-11-15T11:18:43;2.28;;;1.48;;
40320;SDS011;26027;51.454;6.628;2022-11-15T11:21:13;2.38;;;1.38;;
40320;SDS011;26027;51.454;6.628;2022-11-15T11:23:45;3.58;;;1.90;;
40320;SDS011;26027;51.454;6.628;2022-11-15T11:31:55;3.60;;;1.40;;
40320;SDS011;26027;51.454;6.628;2022-11-15T11:44:41;4.10;;;1.40;;
40320;SDS011;26027;51.454;6.628;2022-11-15T11:47:10;3.05;;;1.70;;
40320;SDS011;26027;51.454;6.628;2022-11-15T11:49:44;2.33;;;1.50;;
40320;SDS011;26027;51.454;6.628;2022-11-15T11:55:13;4.95;;;1.50;;
40320;SDS011;26027;51.454;6.628;2022-11-15T12:00:17;3.00;;;1.60;;
40320;SDS011;26027;51.454;6.628;2022-11-15T12:02:49;4.47;;;1.58;;
40320;SDS011;26027;51.454;6.628;2022-11-15T12:05:19;3.95;;;1.50;;
40320;SDS011;26027;51.454;6.628;2022-11-15T12:07:49;3.70;;;1.33;;
40320;SDS011;26027;51.454;6.628;2022-11-15T12:10:17;1.85;;;1.58;;
40320;SDS011;26027;51.454;6.628;2022-11-15T12:13:02;4.75;;;1.40;;
40320;SDS011;26027;51.454;6.628;2022-11-15T12:15:31;3.92;;;1.30;;
40320;SDS011;26027;51.454;6.628;2022-11-15T12:17:59;2.75;;;1.80;;
40320;SDS011;26027;51.454;6.628;2022-11-15T12:21:13;2.13;;;1.30;;
40320;SDS011;26027;51.454;6.628;2022-11-15T12:23:16;4.40;;;1.60;;
40320;SDS011;26027;51.454;6.628;2022-11-15T12:28:27;4.40;;;1.40;;
40320;SDS011;26027;51.454;6.628;2022-11-15T12:31:01;1.95;;;1.20;;
40320;SDS011;26027;51.454;6.628;2022-11-15T12:33:30;4.22;;;1.48;;
40320;SDS011;26027;51.454;6.628;2022-11-15T12:36:00;4.38;;;1.55;;
40320;SDS011;26027;51.454;6.628;2022-11-15T12:39:02;3.92;;;1.52;;
40320;SDS011;26027;51.454;6.628;2022-11-15T12:41:20;3.85;;;1.40;;
40320;SDS011;26027;51.454;6.628;2022-11-15T12:43:47;2.67;;;1.67;;
40320;SDS011;26027;51.454;6.628;2022-11-15T12:48:50;1.75;;;1.20;;
40320;SDS011;26027;51.454;6.628;2022-11-15T12:51:19;3.63;;;1.33;;
40320;SDS011;26027;51.454;6.628;2022-11-15T12:53:45;3.03;;;1.00;;
40320;SDS011;26027;51.454;6.628;2022-11-15T13:06:51;2.42;;;1.10;;
40320;SDS011;26027;51.454;6.628;2022-11-15T13:11:56;2.55;;;1.05;;
40320;SDS011;26027;51.454;6.628;2022-11-15T13:14:42;1.50;;;1.00;;
40320;SDS011;26027;51.454;6.628;2022-11-15T13:22:20;3.28;;;1.08;;
40320;SDS011;26027;51.454;6.628;2022-11-15T13:25:04;2.35;;;1.10;;
40320;SDS011;26027;51.454;6.628;2022-11-15T13:27:40;1.45;;;1.17;;
40320;SDS011;26027;51.454;6.628;2022-11-15T13:30:23;3.50;;;1.40;;
40320;SDS011;26027;51.454;6.628;2022-11-15T13:32:50;2.92;;;1.20;;
40320;SDS011;26027;51.454;6.628;2022-11-15T13:35:21;2.08;;;1.35;;
40320;SDS011;26027;51.454;6.628;2022-11-15T13:37:47;2.97;;;1.13;;
40320;SDS011;26027;51.454;6.628;2022-11-15T13:40:21;1.60;;;1.10;;
40320;SDS011;26027;51.454;6.628;2022-11-15T13:42:48;1.73;;;0.90;;
40320;SDS011;26027;51.454;6.628;2022-11-15T13:45:14;3.42;;;1.10;;
40320;SDS011;26027;51.454;6.628;2022-11-15T13:47:41;2.35;;;1.08;;
40320;SDS011;26027;51.454;6.628;2022-11-15T13:50:10;2.63;;;1.15;;
40320;SDS011;26027;51.454;6.628;2022-11-15T13:52:37;1.38;;;1.00;;
40320;SDS011;26027;51.454;6.628;2022-11-15T13:55:10;1.98;;;0.90;;
40320;SDS011;26027;51.454;6.628;2022-11-15T13:57:48;1.77;;;1.25;;
40320;SDS011;26027;51.454;6.628;2022-11-15T14:00:26;2.00;;;0.90;;
40320;SDS011;26027;51.454;6.628;2022-11-15T14:02:53;2.45;;;1.00;;
40320;SDS011;26027;51.454;6.628;2022-11-15T14:05:20;3.17;;;1.15;;
40320;SDS011;26027;51.454;6.628;2022-11-15T14:12:54;1.27;;;1.00;;
40320;SDS011;26027;51.454;6.628;2022-11-15T14:15:31;1.10;;;1.00;;
40320;SDS011;26027;51.454;6.628;2022-11-15T14:17:58;4.25;;;0.90;;
40320;SDS011;26027;51.454;6.628;2022-11-15T14:23:01;1.33;;;0.80;;
40320;SDS011;26027;51.454;6.628;2022-11-15T14:25:28;2.80;;;1.17;;
40320;SDS011;26027;51.454;6.628;2022-11-15T14:28:09;3.50;;;1.13;;
40320;SDS011;26027;51.454;6.628;2022-11-15T14:30:35;1.75;;;1.05;;
40320;SDS011;26027;51.454;6.628;2022-11-15T14:33:01;2.55;;;1.00;;
40320;SDS011;26027;51.454;6.628;2022-11-15T14:35:28;1.23;;;1.13;;
40320;SDS011;26027;51.454;6.628;2022-11-15T14:37:54;1.63;;;0.95;;
40320;SDS011;26027;51.454;6.628;2022-11-15T14:40:20;2.60;;;1.10;;
40320;SDS011;26027;51.454;6.628;2022-11-15T14:42:48;2.05;;;1.10;;
40320;SDS011;26027;51.454;6.628;2022-11-15T14:45:15;3.17;;;1.30;;
40320;SDS011;26027;51.454;6.628;2022-11-15T14:47:42;1.60;;;1.15;;
40320;SDS011;26027;51.454;6.628;2022-11-15T14:50:15;2.38;;;1.48;;
40320;SDS011;26027;51.454;6.628;2022-11-15T14:52:41;6.00;;;1.40;;
40320;SDS011;26027;51.454;6.628;2022-11-15T14:55:16;4.68;;;1.30;;
40320;SDS011;26027;51.454;6.628;2022-11-15T14:57:43;1.25;;;1.10;;
40320;SDS011;26027;51.454;6.628;2022-11-15T15:00:10;2.67;;;1.15;;
40320;SDS011;26027;51.454;6.628;2022-11-15T15:02:36;3.13;;;1.50;;
40320;SDS011;26027;51.454;6.628;2022-11-15T15:05:11;4.35;;;1.30;;
40320;SDS011;26027;51.454;6.628;2022-11-15T15:07:38;5.55;;;1.65;;
40320;SDS011;26027;51.454;6.628;2022-11-15T15:10:04;3.60;;;1.00;;
40320;SDS011;26027;51.454;6.628;2022-11-15T15:12:30;4.88;;;1.30;;
40320;SDS011;26027;51.454;6.628;2022-11-15T15:14:56;2.58;;;1.33;;
40320;SDS011;26027;51.454;6.628;2022-11-15T15:17:22;2.97;;;1.10;;
40320;SDS011;26027;51.454;6.628;2022-11-15T15:19:48;4.15;;;1.55;;
40320;SDS011;26027;51.454;6.628;2022-11-15T15:22:15;4.25;;;1.50;;
40320;SDS011;26027;51.454;6.628;2022-11-15T15:24:42;1.95;;;1.20;;
40320;SDS011;26027;51.454;6.628;2022-11-15T15:27:08;3.90;;;1.58;;
40320;SDS011;26027;51.454;6.628;2022-11-15T15:29:34;2.67;;;1.20;;
40320;SDS011;26027;51.454;6.628;2022-11-15T15:32:01;4.45;;;1.10;;
40320;SDS011;26027;51.454;6.628;2022-11-15T15:34:27;4.28;;;1.10;;
40320;SDS011;26027;51.454;6.628;2022-11-15T15:39:37;2.33;;;0.98;;
40320;SDS011;26027;51.454;6.628;2022-11-15T15:42:03;3.30;;;1.50;;
40320;SDS011;26027;51.454;6.628;2022-11-15T15:44:29;3.83;;;1.50;;
40320;SDS011;26027;51.454;6.628;2022-11-15T15:46:55;4.85;;;1.70;;
40320;SDS011;26027;51.454;6.628;2022-11-15T15:49:22;3.92;;;1.60;;
40320;SDS011;26027;51.454;6.628;2022-11-15T15:51:49;4.20;;;1.70;;
40320;SDS011;26027;51.454;6.628;2022-11-15T15:54:15;1.98;;;1.27;;
40320;SDS011;26027;51.454;6.628;2022-11-15T15:56:41;1.92;;;1.23;;
40320;SDS011;26027;51.454;6.628;2022-11-15T15:59:07;1.83;;;0.98;;
40320;SDS011;26027;51.454;6.628;2022-11-15T16:01:33;3.10;;;1.02;;
40320;SDS011;26027;51.454;6.628;2022-11-15T16:03:59;2.55;;;1.38;;
40320;SDS011;26027;51.454;6.628;2022-11-15T16:06:35;3.67;;;1.38;;
40320;SDS011;26027;51.454;6.628;2022-11-15T16:09:02;3.15;;;1.10;;
40320;SDS011;26027;51.454;6.628;2022-11-15T16:11:28;4.60;;;1.42;;
40320;SDS011;26027;51.454;6.628;2022-11-15T16:13:54;2.95;;;1.30;;
40320;SDS011;26027;51.454;6.628;2022-11-15T16:16:21;5.05;;;1.50;;
40320;SDS011;26027;51.454;6.628;2022-11-15T16:18:47;2.75;;;1.25;;
40320;SDS011;26027;51.454;6.628;2022-11-15T16:21:13;2.38;;;1.10;;
40320;SDS011;26027;51.454;6.628;2022-11-15T16:23:39;1.15;;;1.00;;
40320;SDS011;26027;51.454;6.628;2022-11-15T16:26:18;2.90;;;1.20;;
40320;SDS011;26027;51.454;6.628;2022-11-15T16:28:45;4.43;;;1.30;;
40320;SDS011;26027;51.454;6.628;2022-11-15T16:31:11;3.15;;;1.13;;
40320;SDS011;26027;51.454;6.628;2022-11-15T16:33:38;3.08;;;1.25;;
40320;SDS011;26027;51.454;6.628;2022-11-15T16:36:05;2.05;;;1.17;;